Agat, Guam
Current Conditions -  °F | °C
As of 9:54 PM on Wednesday 28 Jan 2015 (Local Time) from PGUM Reporting Station
Clear Clear  
Wind Chill: 79°   Ceiling: Unl
Heat Index: 82°   Visibility: 10mi
Dew Point: 74°   Wind: 5mph
Humidity: 84%   Direction: 50°NE
Pressure: 29.87"   Gusts: NA
Location:  13.38°N, 144.65°E
Report Text: PGUM 281154Z 05004KT 10SM CLR 26/23 A2987 RMK AO2 SLP106 70002 T02610233 10294 20261 51009
Loading
Personal Weather Stations






























Interactive Weather Map New forecast layout! Learn more

10-Day Weather Forecast

Advertisements
Track Severe Weather on mobile